Time;durP1;ratioP1;P1;durP2;ratioP2;P2;SDS_P1;SDS_P2;PMS_P1;PMS_P2;Temp;Humidity;BMP_temperature;BMP_pressure;BME280_temperature;BME280_humidity;BME280_pressure;Samples;Min_cycle;Max_cycle;Signal;HPM_P1;HPM_P2
2022/01/28 00:00:06;;;;;;;4.32;0.80;;;;;;;4.60;100.00;97946.22;5015019;28;20078;-82
2022/01/28 00:05:21;;;;;;;3.78;0.60;;;;;;;4.43;100.00;97950.25;5021107;28;20046;-79
2022/01/28 00:07:53;;;;;;;4.03;0.60;;;;;;;4.47;100.00;97951.31;5017599;28;20046;-80
2022/01/28 00:10:22;;;;;;;3.60;0.52;;;;;;;4.49;100.00;97952.66;4997962;28;20050;-81
2022/01/28 00:13:13;;;;;;;5.97;1.05;;;;;;;4.29;100.00;97944.59;4998881;28;20103;-81
2022/01/28 00:16:08;;;;;;;6.40;0.70;;;;;;;4.44;100.00;97955.31;5015079;28;20081;-80
2022/01/28 00:40:18;;;;;;;5.28;0.50;;;;;;;4.24;100.00;98000.88;5014902;28;20054;-82
2022/01/28 00:42:45;;;;;;;8.27;1.15;;;;;;;4.12;100.00;98009.16;5015851;28;20060;-83
2022/01/28 00:45:11;;;;;;;6.90;0.60;;;;;;;4.22;100.00;98022.59;5016924;28;20300;-83
2022/01/28 00:47:38;;;;;;;5.40;0.90;;;;;;;4.12;100.00;97986.91;5020633;28;20052;-81
2022/01/28 00:50:05;;;;;;;4.80;0.75;;;;;;;4.09;100.00;98007.00;5002962;28;20084;-82
2022/01/28 00:52:31;;;;;;;8.38;0.90;;;;;;;4.04;100.00;98006.19;5003531;28;20050;-82
2022/01/28 00:54:58;;;;;;;6.82;1.00;;;;;;;3.96;100.00;98004.00;5021013;28;20056;-81
2022/01/28 00:57:25;;;;;;;8.90;1.00;;;;;;;3.88;100.00;98008.00;5021030;28;20046;-82
2022/01/28 00:59:51;;;;;;;9.75;0.90;;;;;;;3.97;100.00;98027.06;5000266;28;20092;-84
2022/01/28 01:02:18;;;;;;;7.22;0.77;;;;;;;3.89;100.00;98019.53;5016241;28;20482;-85
2022/01/28 01:04:45;;;;;;;7.60;0.80;;;;;;;3.88;100.00;98032.09;5002378;28;20057;-84
2022/01/28 01:07:12;;;;;;;4.97;0.90;;;;;;;3.84;100.00;98032.91;4999783;28;20077;-82
2022/01/28 01:09:38;;;;;;;5.22;0.82;;;;;;;3.74;100.00;98015.72;4994086;28;20057;-82
2022/01/28 01:12:05;;;;;;;6.07;1.00;;;;;;;3.94;100.00;98046.31;5014382;28;20454;-82
2022/01/28 01:14:32;;;;;;;5.20;0.80;;;;;;;4.01;100.00;98053.03;4998685;28;20415;-84
2022/01/28 01:17:37;;;;;;;7.40;0.85;;;;;;;4.01;100.00;98049.56;5016333;28;20069;-82
2022/01/28 01:20:00;;;;;;;5.03;0.88;;;;;;;4.05;100.00;98061.38;5012576;28;20144;-82
2022/01/28 01:22:35;;;;;;;9.18;1.23;;;;;;;4.06;100.00;98063.78;5014707;28;20325;-84
2022/01/28 01:25:04;;;;;;;6.70;0.90;;;;;;;4.00;100.00;98066.72;5014984;28;20050;-83
2022/01/28 01:27:31;;;;;;;6.25;1.08;;;;;;;3.95;100.00;98047.94;5016086;28;20080;-81
2022/01/28 01:29:58;;;;;;;8.82;0.90;;;;;;;4.06;100.00;98074.50;5015730;28;20054;-81
2022/01/28 01:32:24;;;;;;;9.85;0.77;;;;;;;3.97;100.00;98056.53;5015105;28;20093;-82
2022/01/28 01:34:51;;;;;;;5.78;0.98;;;;;;;3.95;100.00;98072.06;5015195;28;20180;-82
2022/01/28 01:37:17;;;;;;;5.68;0.65;;;;;;;3.89;100.00;98065.06;5016160;28;20099;-82
2022/01/28 01:39:44;;;;;;;8.80;1.17;;;;;;;3.95;100.00;98067.47;5013450;28;20050;-82
2022/01/28 01:42:24;;;;;;;10.40;1.33;;;;;;;4.05;100.00;98080.91;5015105;28;20470;-81
2022/01/28 01:52:48;;;;;;;9.27;1.00;;;;;;;3.98;100.00;98082.22;5017602;28;20050;-81
2022/01/28 01:55:14;;;;;;;8.27;0.82;;;;;;;3.96;100.00;98074.47;5010383;28;20054;-80
2022/01/28 01:57:43;;;;;;;7.13;0.57;;;;;;;3.97;100.00;98084.13;5027779;28;20129;-80
2022/01/28 02:00:10;;;;;;;13.95;0.90;;;;;;;4.03;100.00;98093.75;5020814;28;20108;-83
2022/01/28 02:02:37;;;;;;;6.55;1.10;;;;;;;4.08;100.00;98085.75;5015198;28;20116;-81
2022/01/28 02:05:05;;;;;;;6.05;0.88;;;;;;;4.02;100.00;98110.09;4998358;28;20091;-82
2022/01/28 02:07:31;;;;;;;7.88;1.20;;;;;;;4.02;100.00;98102.88;4998524;28;20482;-81
2022/01/28 02:09:58;;;;;;;7.07;0.90;;;;;;;3.98;100.00;98103.66;5014042;28;20053;-82
2022/01/28 02:12:24;;;;;;;10.15;1.02;;;;;;;4.03;100.00;98088.41;5015607;28;20053;-84
2022/01/28 02:14:51;;;;;;;5.90;0.77;;;;;;;3.91;100.00;98089.69;5017925;28;20054;-82
2022/01/28 02:17:18;;;;;;;9.95;1.10;;;;;;;4.03;100.00;98091.09;5017740;28;20076;-84
2022/01/28 02:19:44;;;;;;;10.05;1.10;;;;;;;4.01;100.00;98111.16;5015107;28;20060;-83
2022/01/28 02:22:12;;;;;;;11.05;1.65;;;;;;;4.12;100.00;98104.78;4998863;28;20430;-83
2022/01/28 02:24:44;;;;;;;9.40;1.10;;;;;;;4.11;100.00;98121.94;4999421;28;20054;-83
2022/01/28 02:27:14;;;;;;;8.95;1.38;;;;;;;4.02;100.00;98105.56;4999183;28;20046;-81
2022/01/28 02:29:43;;;;;;;6.18;0.85;;;;;;;3.94;100.00;98118.63;4998660;28;20100;-82
2022/01/28 02:32:10;;;;;;;4.25;0.90;;;;;;;3.92;100.00;98121.59;4981026;28;20050;-81
2022/01/28 02:34:39;;;;;;;12.73;1.52;;;;;;;3.76;100.00;98110.00;4998515;28;20506;-83
2022/01/28 02:37:06;;;;;;;13.48;1.48;;;;;;;3.91;100.00;98100.41;4981390;28;20060;-83
2022/01/28 02:39:33;;;;;;;10.23;1.45;;;;;;;3.94;100.00;98119.44;4979569;28;20081;-80
2022/01/28 02:42:16;;;;;;;6.38;1.30;;;;;;;3.73;100.00;98104.34;4980784;28;20054;-83
2022/01/28 02:44:50;;;;;;;10.43;1.40;;;;;;;3.84;100.00;98111.38;4994337;28;20363;-81
2022/01/28 02:47:28;;;;;;;9.68;1.08;;;;;;;3.91;100.00;98114.59;4979607;28;20061;-81
2022/01/28 02:49:56;;;;;;;8.45;1.15;;;;;;;3.94;100.00;98107.94;4981205;28;20069;-84
2022/01/28 02:52:34;;;;;;;10.02;1.52;;;;;;;4.09;100.00;98122.19;4982866;28;20128;-82
2022/01/28 02:55:02;;;;;;;13.07;1.45;;;;;;;3.97;100.00;98105.53;4999561;28;20165;-83
2022/01/28 02:57:29;;;;;;;12.88;1.60;;;;;;;4.02;100.00;98129.69;4998709;28;20050;-82
2022/01/28 02:59:55;;;;;;;14.70;1.08;;;;;;;4.09;100.00;98116.03;4979294;28;20054;-84
2022/01/28 03:02:22;;;;;;;15.38;1.65;;;;;;;4.11;100.00;98127.28;4997900;28;20050;-82
2022/01/28 03:05:08;;;;;;;11.55;1.58;;;;;;;4.03;100.00;98114.38;4979377;28;20085;-82
2022/01/28 03:07:35;;;;;;;12.63;1.20;;;;;;;4.24;100.00;98135.66;4996726;28;20054;-82
2022/01/28 03:10:26;;;;;;;;;;;;;;;;;;;;;
2022/01/28 03:12:35;;;;;;;10.75;1.80;;;;;;;4.24;100.00;98141.00;4997957;28;20058;-82
2022/01/28 03:15:06;;;;;;;10.05;1.08;;;;;;;4.16;100.00;98149.56;4979410;28;20101;-84
2022/01/28 03:22:47;;;;;;;6.07;0.90;;;;;;;4.13;100.00;98160.78;4997271;28;20061;-81
2022/01/28 03:25:15;;;;;;;7.25;0.93;;;;;;;4.14;100.00;98173.13;4995764;28;20128;-83
2022/01/28 03:27:51;;;;;;;13.20;1.50;;;;;;;4.11;100.00;98159.44;4996208;28;20046;-82
2022/01/28 03:30:18;;;;;;;10.35;1.42;;;;;;;4.16;100.00;98170.16;4977549;28;20053;-82
2022/01/28 03:32:44;;;;;;;12.13;1.75;;;;;;;3.88;100.00;98157.16;4980740;28;20058;-81
2022/01/28 03:35:27;;;;;;;14.13;1.52;;;;;;;4.04;100.00;98173.06;4995912;28;20050;-83
2022/01/28 03:37:59;;;;;;;8.05;1.40;;;;;;;4.00;100.00;98169.28;4998198;28;20046;-81
2022/01/28 03:40:36;;;;;;;12.50;1.60;;;;;;;3.95;100.00;98174.59;4980193;28;20054;-82
2022/01/28 03:43:05;;;;;;;18.25;1.75;;;;;;;3.98;100.00;98170.59;4996901;28;20050;-82
2022/01/28 03:45:32;;;;;;;9.88;1.48;;;;;;;3.96;100.00;98172.75;4998014;28;20069;-82
2022/01/28 03:47:58;;;;;;;8.35;1.13;;;;;;;3.96;100.00;98178.09;4978970;28;20137;-84
2022/01/28 03:50:25;;;;;;;7.53;1.67;;;;;;;3.83;100.00;98165.16;4996359;28;20166;-82
2022/01/28 03:52:51;;;;;;;7.18;0.98;;;;;;;3.96;100.00;98175.41;4995910;28;20054;-82
2022/01/28 03:55:18;;;;;;;9.75;1.50;;;;;;;3.88;100.00;98157.16;4977697;28;20053;-82
2022/01/28 03:57:45;;;;;;;9.73;1.70;;;;;;;3.95;100.00;98174.59;4997067;28;20134;-83
2022/01/28 04:00:12;;;;;;;8.52;1.10;;;;;;;3.92;100.00;98174.34;4995542;28;20046;-82
2022/01/28 04:02:43;;;;;;;8.88;1.13;;;;;;;4.08;100.00;98182.19;4995172;28;20072;-82
2022/01/28 04:06:10;;;;;;;7.65;1.20;;;;;;;3.98;100.00;98202.75;4994852;28;20061;-81
2022/01/28 04:11:27;;;;;;;9.53;1.00;;;;;;;4.03;100.00;98176.00;4996360;28;20050;-82
2022/01/28 04:13:50;;;;;;;8.98;1.02;;;;;;;4.12;100.00;98191.34;4996249;28;20315;-84
2022/01/28 04:18:47;;;;;;;12.20;1.33;;;;;;;4.15;100.00;98182.78;4994711;28;20069;-81
2022/01/28 04:21:14;;;;;;;12.18;1.35;;;;;;;4.06;100.00;98195.03;5001381;28;20065;-82
2022/01/28 04:23:40;;;;;;;11.93;1.35;;;;;;;4.19;100.00;98194.59;4997608;28;20116;-81
2022/01/28 04:26:07;;;;;;;11.20;1.50;;;;;;;4.12;100.00;98193.22;4995836;28;20058;-80
2022/01/28 04:28:33;;;;;;;9.60;1.52;;;;;;;4.22;100.00;98201.28;4988566;28;20046;-83
2022/01/28 04:31:00;;;;;;;13.85;1.60;;;;;;;4.14;100.00;98191.88;5002104;28;20050;-80
2022/01/28 04:33:29;;;;;;;16.83;2.25;;;;;;;4.03;100.00;98194.75;5010098;28;20042;-81
2022/01/28 04:35:56;;;;;;;8.27;1.20;;;;;;;4.09;100.00;98205.25;4995556;28;20050;-84
2022/01/28 04:41:19;;;;;;;11.40;1.75;;;;;;;4.15;100.00;98206.91;5007686;28;20057;-82
2022/01/28 04:43:53;;;;;;;13.60;1.98;;;;;;;4.08;100.00;98216.19;4988277;28;20050;-84
2022/01/28 04:48:58;;;;;;;12.68;1.83;;;;;;;3.93;100.00;98238.34;4996326;28;20046;-82
2022/01/28 04:51:50;;;;;;;16.08;1.80;;;;;;;3.93;100.00;98238.34;4996046;28;20058;-80
2022/01/28 04:57:31;;;;;;;18.60;2.22;;;;;;;3.88;100.00;98241.00;4993221;28;20058;-82
2022/01/28 05:00:16;;;;;;;;;;;;;;;3.98;100.00;98259.00;4993136;28;20059;-80
2022/01/28 05:06:06;;;;;;;17.27;1.83;;;;;;;3.85;100.00;98262.91;4997966;28;20510;-80
2022/01/28 05:13:49;;;;;;;15.13;1.77;;;;;;;4.03;100.00;98267.88;5007096;28;20050;-82
2022/01/28 05:25:14;;;;;;;21.60;1.77;;;;;;;4.27;100.00;98295.94;5005574;28;20073;-82
2022/01/28 05:27:39;;;;;;;12.90;1.90;;;;;;;4.13;100.00;98310.03;5005937;28;20079;-82
2022/01/28 05:30:07;;;;;;;15.70;1.80;;;;;;;4.14;100.00;98322.34;4987639;28;20415;-82
2022/01/28 05:32:33;;;;;;;16.15;2.28;;;;;;;3.99;100.00;98325.72;5003845;28;20057;-80
2022/01/28 05:35:00;;;;;;;12.88;1.80;;;;;;;4.00;100.00;98315.81;5008494;28;20104;-81
2022/01/28 05:37:26;;;;;;;11.55;1.67;;;;;;;4.07;100.00;98332.47;4986378;28;20136;-80
2022/01/28 05:39:58;;;;;;;12.68;1.73;;;;;;;4.18;100.00;98324.25;5003341;28;20348;-84
2022/01/28 05:42:27;;;;;;;10.13;1.67;;;;;;;3.95;100.00;98319.25;4998473;28;20058;-82
2022/01/28 05:44:54;;;;;;;16.70;1.90;;;;;;;3.74;100.00;98331.66;4995228;28;20406;-82
2022/01/28 05:47:24;;;;;;;11.60;1.50;;;;;;;3.84;100.00;98338.19;5012107;28;20057;-85
2022/01/28 05:49:51;;;;;;;10.02;1.67;;;;;;;3.73;100.00;98338.09;5008247;28;20474;-83
2022/01/28 05:52:18;;;;;;;15.35;2.42;;;;;;;3.62;100.00;98319.47;5016659;28;20054;-81
2022/01/28 05:54:44;;;;;;;14.10;1.65;;;;;;;3.78;100.00;98350.72;4998851;28;20054;-82
2022/01/28 05:57:11;;;;;;;21.00;2.03;;;;;;;3.66;100.00;98353.56;4983477;28;20054;-80
2022/01/28 05:59:37;;;;;;;14.68;2.15;;;;;;;3.49;100.00;98343.97;5004561;28;20050;-81
2022/01/28 06:02:04;;;;;;;15.05;1.73;;;;;;;3.73;100.00;98351.47;4985321;28;20054;-83
2022/01/28 06:04:31;;;;;;;14.02;2.00;;;;;;;3.76;100.00;98353.66;4986804;28;20145;-83
2022/01/28 06:06:57;;;;;;;21.73;2.03;;;;;;;3.67;100.00;98370.41;5003406;28;20145;-82
2022/01/28 06:09:24;;;;;;;10.95;1.60;;;;;;;3.78;100.00;98375.63;5003081;28;20096;-81
2022/01/28 06:11:50;;;;;;;11.95;1.70;;;;;;;3.77;100.00;98365.97;5018736;28;20564;-82
2022/01/28 06:14:17;;;;;;;17.00;2.38;;;;;;;4.00;100.00;98369.41;5005578;28;20050;-82
2022/01/28 06:16:43;;;;;;;13.52;1.48;;;;;;;3.66;100.00;98376.84;5023879;28;20049;-84
2022/01/28 06:19:10;;;;;;;19.35;1.65;;;;;;;3.81;100.00;98386.88;5015207;28;20419;-82
2022/01/28 06:21:36;;;;;;;14.65;1.70;;;;;;;3.69;100.00;98387.03;4998374;28;20129;-80
2022/01/28 06:24:03;;;;;;;11.25;1.70;;;;;;;3.58;100.00;98402.19;5012183;28;20062;-82
2022/01/28 06:26:30;;;;;;;18.05;2.17;;;;;;;3.71;100.00;98388.41;5017470;28;20466;-82
2022/01/28 06:28:57;;;;;;;14.35;1.70;;;;;;;3.62;100.00;98416.69;5019242;28;20047;-82
2022/01/28 06:31:23;;;;;;;11.00;1.45;;;;;;;3.64;100.00;98413.72;5013926;28;20042;-81
2022/01/28 06:33:50;;;;;;;11.93;1.50;;;;;;;3.57;100.00;98400.56;4996606;28;20060;-84
2022/01/28 06:36:19;;;;;;;16.48;1.75;;;;;;;3.56;100.00;98406.19;4996951;28;20053;-82
2022/01/28 06:38:47;;;;;;;9.75;1.65;;;;;;;3.39;100.00;98421.47;4999568;28;20423;-81
2022/01/28 06:41:14;;;;;;;14.05;1.83;;;;;;;3.38;100.00;98426.00;5011492;28;20347;-83
2022/01/28 06:43:41;;;;;;;15.00;1.73;;;;;;;3.46;100.00;98435.50;5011928;28;20069;-82
2022/01/28 06:46:08;;;;;;;13.93;1.77;;;;;;;3.30;100.00;98431.81;5014377;28;20057;-80
2022/01/28 06:48:34;;;;;;;13.77;1.98;;;;;;;3.17;100.00;98461.63;5015375;28;20434;-82
2022/01/28 06:51:01;;;;;;;16.13;2.17;;;;;;;3.04;100.00;98435.22;5019253;28;20076;-82
2022/01/28 06:53:28;;;;;;;12.77;1.65;;;;;;;2.99;100.00;98430.59;4995125;28;20053;-83
2022/01/28 06:55:54;;;;;;;12.85;1.92;;;;;;;2.88;100.00;98452.91;5010271;28;20050;-84
2022/01/28 06:58:21;;;;;;;21.90;2.05;;;;;;;2.94;100.00;98470.63;5008943;28;20046;-81
2022/01/28 07:00:48;;;;;;;15.48;2.13;;;;;;;2.70;100.00;98439.81;5013571;28;20379;-83
2022/01/28 07:03:14;;;;;;;16.98;2.10;;;;;;;2.82;100.00;98471.78;4993580;28;20265;-83
2022/01/28 07:05:41;;;;;;;22.45;2.13;;;;;;;2.73;100.00;98460.72;5013489;28;20038;-84
2022/01/28 07:08:09;;;;;;;22.75;1.70;;;;;;;2.70;100.00;98471.88;5019008;28;20058;-81
2022/01/28 07:10:36;;;;;;;15.00;1.85;;;;;;;2.89;100.00;98485.81;5001360;28;20115;-84
2022/01/28 07:13:03;;;;;;;14.85;2.33;;;;;;;2.83;100.00;98473.41;5001450;28;20561;-82
2022/01/28 07:15:30;;;;;;;9.68;1.70;;;;;;;2.76;100.00;98472.78;5020539;28;20077;-81
2022/01/28 07:18:01;;;;;;;23.90;2.22;;;;;;;2.82;100.00;98493.19;5005880;28;20117;-82
2022/01/28 07:20:33;;;;;;;16.33;2.20;;;;;;;2.96;100.00;98467.72;5018797;28;20077;-83
2022/01/28 07:23:00;;;;;;;12.05;1.95;;;;;;;3.13;100.00;98492.56;4998995;28;20054;-83
2022/01/28 07:25:27;;;;;;;16.30;2.15;;;;;;;3.04;100.00;98486.84;5015371;28;20054;-83
2022/01/28 07:27:53;;;;;;;20.63;2.47;;;;;;;3.08;100.00;98497.84;5014679;28;20050;-82
2022/01/28 07:30:20;;;;;;;26.77;3.22;;;;;;;3.29;100.00;98486.38;5000419;28;20345;-81
2022/01/28 07:32:49;;;;;;;14.65;2.75;;;;;;;3.32;100.00;98480.53;4979167;28;20054;-82
2022/01/28 07:35:16;;;;;;;19.25;1.95;;;;;;;3.27;100.00;98496.53;5009044;28;20487;-85
2022/01/28 07:37:43;;;;;;;26.65;2.28;;;;;;;3.37;100.00;98499.34;4987651;28;20085;-81
2022/01/28 07:40:10;;;;;;;16.80;1.80;;;;;;;3.42;100.00;98493.25;5017091;28;20046;-86
2022/01/28 07:42:38;;;;;;;14.93;2.53;;;;;;;3.42;100.00;98499.41;4983314;28;20046;-80
2022/01/28 07:45:06;;;;;;;17.88;2.22;;;;;;;3.40;100.00;98488.16;5001591;28;20057;-81
2022/01/28 07:47:36;;;;;;;11.40;1.88;;;;;;;3.31;100.00;98476.25;5008742;28;20070;-83
2022/01/28 07:50:05;;;;;;;15.30;1.88;;;;;;;3.39;100.00;98505.25;5005779;28;20038;-84
2022/01/28 07:52:31;;;;;;;22.02;2.40;;;;;;;3.49;100.00;98505.38;5005907;28;20486;-81
2022/01/28 07:54:58;;;;;;;23.73;2.40;;;;;;;3.47;100.00;98510.19;5008971;28;20042;-79
2022/01/28 07:57:25;;;;;;;23.65;3.17;;;;;;;3.46;100.00;98516.59;5008476;28;20100;-82
2022/01/28 07:59:52;;;;;;;15.77;2.20;;;;;;;3.49;100.00;98520.63;4988341;28;20068;-82
2022/01/28 08:02:18;;;;;;;12.63;2.10;;;;;;;3.56;100.00;98523.97;5007568;28;20050;-83
2022/01/28 08:04:48;;;;;;;20.83;2.92;;;;;;;3.49;100.00;98516.09;4990063;28;20196;-82
2022/01/28 08:07:15;;;;;;;30.27;2.65;;;;;;;3.54;100.00;98531.41;5006682;28;20054;-83
2022/01/28 08:09:41;;;;;;;17.83;2.35;;;;;;;3.46;100.00;98535.31;5010654;28;20111;-81
2022/01/28 08:12:08;;;;;;;19.83;2.55;;;;;;;3.57;100.00;98531.72;5006255;28;20053;-84
2022/01/28 08:14:35;;;;;;;14.48;2.65;;;;;;;3.48;100.00;98549.28;5001216;28;20136;-82
2022/01/28 08:17:02;;;;;;;18.05;2.40;;;;;;;3.55;100.00;98555.28;4985978;28;20046;-81
2022/01/28 08:19:28;;;;;;;15.82;2.20;;;;;;;3.68;100.00;98559.44;5008489;28;20109;-79
2022/01/28 08:21:55;;;;;;;16.10;2.50;;;;;;;3.71;100.00;98567.81;4987876;28;20046;-80
2022/01/28 08:24:21;;;;;;;15.18;1.80;;;;;;;3.84;100.00;98557.78;5009061;28;20046;-82
2022/01/28 08:26:48;;;;;;;18.23;2.55;;;;;;;3.86;100.00;98550.31;5015178;28;20188;-83
2022/01/28 08:29:15;;;;;;;17.55;1.98;;;;;;;4.00;100.00;98567.63;5014589;28;20053;-78
2022/01/28 08:31:41;;;;;;;18.67;2.10;;;;;;;3.97;100.00;98578.84;5011636;28;20111;-78
2022/01/28 08:34:08;;;;;;;12.98;1.70;;;;;;;3.98;100.00;98575.91;5014783;28;20054;-83
2022/01/28 08:36:35;;;;;;;17.50;2.50;;;;;;;3.91;100.00;98588.69;5017158;28;20123;-83
2022/01/28 08:39:04;;;;;;;15.32;2.08;;;;;;;3.93;100.00;98589.22;4998791;28;20045;-82
2022/01/28 08:41:33;;;;;;;16.27;1.83;;;;;;;4.03;100.00;98573.28;5016338;28;20058;-83
2022/01/28 08:44:09;;;;;;;12.80;1.95;;;;;;;3.87;100.00;98589.44;5015989;28;20104;-81
2022/01/28 08:47:00;;;;;;;18.75;2.72;;;;;;;3.89;100.00;98608.72;5017767;28;20026;-82
2022/01/28 08:49:36;;;;;;;13.88;2.40;;;;;;;3.79;100.00;98622.81;5024041;28;20056;-82
2022/01/28 08:52:05;;;;;;;14.13;1.73;;;;;;;3.81;100.00;98614.50;5030271;28;20064;-80
2022/01/28 08:54:32;;;;;;;15.70;2.15;;;;;;;3.75;100.00;98589.53;5017516;28;20045;-84
2022/01/28 08:56:59;;;;;;;16.00;2.00;;;;;;;3.68;100.00;98613.00;5018663;28;20495;-81
2022/01/28 08:59:39;;;;;;;16.63;2.55;;;;;;;3.69;100.00;98634.16;5008086;28;20085;-81
2022/01/28 09:02:07;;;;;;;18.35;2.45;;;;;;;3.88;100.00;98624.00;4991569;28;20054;-80
2022/01/28 09:04:33;;;;;;;22.52;2.30;;;;;;;4.14;100.00;98631.31;5008677;28;20053;-85
2022/01/28 09:07:03;;;;;;;18.67;2.70;;;;;;;3.95;100.00;98621.16;5003753;28;20071;-83
2022/01/28 09:09:30;;;;;;;21.48;2.88;;;;;;;3.89;100.00;98641.69;5019055;28;20054;-83
2022/01/28 09:12:47;;;;;;;20.83;2.53;;;;;;;4.04;100.00;98627.69;5022465;28;20122;-83
2022/01/28 09:14:47;;;;;;;19.73;2.78;;;;;;;3.94;100.00;98635.59;4999683;28;20108;-82
2022/01/28 09:17:13;;;;;;;22.88;2.47;;;;;;;4.00;100.00;98645.31;5031183;28;20046;-82
2022/01/28 09:19:40;;;;;;;27.58;2.90;;;;;;;4.36;100.00;98652.75;5012754;28;20038;-81
2022/01/28 09:22:06;;;;;;;16.63;2.83;;;;;;;4.41;100.00;98628.69;4997688;28;20134;-81
2022/01/28 09:24:33;;;;;;;18.27;2.55;;;;;;;4.22;100.00;98635.41;4992361;28;20084;-83
2022/01/28 09:26:59;;;;;;;19.83;3.22;;;;;;;4.34;100.00;98655.66;5011049;28;20319;-83
2022/01/28 09:29:26;;;;;;;20.58;3.22;;;;;;;4.47;100.00;98667.88;4990121;28;20073;-81
2022/01/28 09:31:52;;;;;;;18.25;3.00;;;;;;;4.30;100.00;98654.56;5007386;28;20319;-83
2022/01/28 09:34:19;;;;;;;21.58;2.72;;;;;;;4.56;100.00;98679.81;5003606;28;20050;-83
2022/01/28 09:36:46;;;;;;;19.05;2.78;;;;;;;4.56;100.00;98684.34;4993014;28;20050;-82
2022/01/28 09:39:13;;;;;;;14.30;2.60;;;;;;;4.49;100.00;98675.69;5003743;28;20079;-82
2022/01/28 09:41:40;;;;;;;20.42;2.78;;;;;;;4.49;100.00;98665.75;5014802;28;20060;-83
2022/01/28 09:44:09;;;;;;;26.48;3.30;;;;;;;4.40;100.00;98684.16;5020442;28;20073;-82
2022/01/28 09:46:37;;;;;;;26.52;2.75;;;;;;;4.57;100.00;98696.72;5000509;28;20133;-83
2022/01/28 09:49:04;;;;;;;22.90;2.75;;;;;;;4.44;100.00;98697.09;5007817;28;20129;-82
2022/01/28 09:51:30;;;;;;;16.92;2.90;;;;;;;4.49;100.00;98691.78;4984542;28;20065;-82
2022/01/28 09:53:58;;;;;;;22.70;3.28;;;;;;;4.59;100.00;98702.63;4990505;28;20050;-83
2022/01/28 09:56:24;;;;;;;19.38;2.50;;;;;;;4.41;100.00;98701.06;5020793;28;20050;-83
2022/01/28 09:58:51;;;;;;;21.05;2.50;;;;;;;4.43;100.00;98706.16;4989500;28;20049;-84
2022/01/28 10:01:17;;;;;;;21.13;3.28;;;;;;;4.41;100.00;98709.91;5009966;28;20052;-83
2022/01/28 10:03:44;;;;;;;20.10;2.63;;;;;;;4.30;100.00;98688.59;5014872;28;20042;-82
2022/01/28 10:06:11;;;;;;;16.65;2.45;;;;;;;4.48;100.00;98735.72;5006116;28;20049;-81
2022/01/28 10:08:38;;;;;;;25.80;3.10;;;;;;;4.47;100.00;98718.81;5007878;28;20061;-82
2022/01/28 10:11:12;;;;;;;20.35;2.88;;;;;;;4.63;100.00;98709.91;5006667;28;20057;-81
2022/01/28 10:13:54;;;;;;;28.98;2.97;;;;;;;4.53;100.00;98709.78;4991838;28;20065;-83
2022/01/28 10:16:30;;;;;;;23.38;2.70;;;;;;;4.75;100.00;98713.25;5012340;28;20066;-82
2022/01/28 10:19:06;;;;;;;18.73;2.65;;;;;;;4.84;100.00;98719.81;4983457;28;20049;-86
2022/01/28 10:21:38;;;;;;;;;;;;;;;4.65;100.00;98717.69;4987909;28;20077;-81
2022/01/28 10:24:27;;;;;;;25.00;2.80;;;;;;;4.50;100.00;98718.34;5001494;28;19928;-84
2022/01/28 10:27:06;;;;;;;24.60;2.78;;;;;;;4.57;100.00;98716.25;4978429;28;20141;-84
2022/01/28 10:29:39;;;;;;;33.00;3.50;;;;;;;4.63;100.00;98717.16;4990873;28;20046;-83
2022/01/28 10:32:17;;;;;;;23.33;2.70;;;;;;;4.43;100.00;98733.81;4976246;28;20054;-84
2022/01/28 10:34:51;;;;;;;19.65;2.85;;;;;;;4.39;100.00;98721.94;5011108;28;20487;-83
2022/01/28 10:37:23;;;;;;;17.90;2.60;;;;;;;4.62;100.00;98716.31;4999100;28;20054;-82
2022/01/28 10:40:07;;;;;;;22.35;3.33;;;;;;;4.52;100.00;98720.78;4998408;28;20042;-83
2022/01/28 10:42:41;;;;;;;19.02;3.28;;;;;;;4.44;100.00;98738.09;5009095;28;20057;-84
2022/01/28 10:45:16;;;;;;;19.98;3.55;;;;;;;4.33;100.00;98753.25;5008615;28;20049;-82
2022/01/28 10:47:45;;;;;;;13.68;2.40;;;;;;;4.48;100.00;98751.81;4991159;28;20046;-83
2022/01/28 10:50:37;;;;;;;19.65;3.03;;;;;;;4.43;100.00;98736.47;5006472;28;20042;-84
2022/01/28 10:53:10;;;;;;;19.67;2.90;;;;;;;4.37;100.00;98740.13;5007662;28;20042;-84
2022/01/28 10:55:57;;;;;;;13.15;2.40;;;;;;;4.22;100.00;98756.84;5004797;28;20050;-83
2022/01/28 10:58:26;;;;;;;24.83;2.80;;;;;;;4.16;100.00;98784.59;4997163;28;20510;-83
2022/01/28 11:00:57;;;;;;;26.20;3.80;;;;;;;3.92;100.00;98793.88;4999137;28;20050;-82
2022/01/28 11:03:28;;;;;;;17.45;2.63;;;;;;;3.83;100.00;98811.41;5016796;28;20054;-82
2022/01/28 11:06:00;;;;;;;31.42;3.00;;;;;;;3.49;100.00;98813.22;4999943;28;20065;-83
2022/01/28 11:08:32;;;;;;;24.77;2.97;;;;;;;3.53;100.00;98813.56;4998653;28;20049;-83
2022/01/28 11:11:00;;;;;;;33.60;3.42;;;;;;;3.56;100.00;98810.41;5017350;28;20578;-83
2022/01/28 11:13:28;;;;;;;30.90;4.40;;;;;;;3.63;100.00;98819.91;5000289;28;20058;-83
2022/01/28 11:15:55;;;;;;;34.80;3.55;;;;;;;3.67;100.00;98796.94;4992636;28;20042;-83
2022/01/28 11:18:23;;;;;;;26.00;4.07;;;;;;;4.00;100.00;98801.50;4990322;28;20220;-83
2022/01/28 11:20:55;;;;;;;30.50;3.50;;;;;;;4.27;100.00;98815.06;5008434;28;20049;-83
2022/01/28 11:23:33;;;;;;;29.52;3.97;;;;;;;4.20;100.00;98804.50;5012174;28;20357;-81
2022/01/28 11:26:13;;;;;;;38.97;4.07;;;;;;;4.17;100.00;98804.19;4983609;28;20047;-83
2022/01/28 11:28:44;;;;;;;28.30;3.42;;;;;;;4.09;100.00;98800.03;5015544;28;20124;-83
2022/01/28 11:31:13;;;;;;;21.90;3.33;;;;;;;4.29;100.00;98811.06;5011984;28;20049;-79
2022/01/28 11:33:51;;;;;;;26.52;3.15;;;;;;;4.05;100.00;98806.94;5013854;28;20242;-81
2022/01/28 11:36:35;;;;;;;27.23;3.90;;;;;;;3.94;100.00;98788.28;5012572;28;20077;-81
2022/01/28 11:39:18;;;;;;;35.72;4.47;;;;;;;4.05;100.00;98796.22;5011569;28;20062;-84
2022/01/28 11:42:18;;;;;;;31.48;3.92;;;;;;;4.22;100.00;98815.78;5013234;28;20054;-79
2022/01/28 11:44:51;;;;;;;20.70;3.63;;;;;;;4.09;100.00;98804.59;5004331;28;20049;-81
2022/01/28 11:47:36;;;;;;;29.90;4.32;;;;;;;4.12;100.00;98806.78;5013244;28;20053;-80
2022/01/28 11:50:14;;;;;;;32.25;3.50;;;;;;;4.28;100.00;98819.38;5013990;28;20042;-79
2022/01/28 11:52:44;;;;;;;29.05;3.10;;;;;;;4.26;100.00;98816.09;5004304;28;20790;-82
2022/01/28 11:55:16;;;;;;;31.77;3.72;;;;;;;4.48;100.00;98810.81;4991827;28;20486;-82
2022/01/28 11:57:50;;;;;;;33.83;4.50;;;;;;;4.60;100.00;98811.50;5013202;28;20120;-84
2022/01/28 12:00:34;;;;;;;32.33;4.13;;;;;;;4.61;100.00;98822.00;5012786;28;20069;-80
2022/01/28 12:03:02;;;;;;;44.38;3.83;;;;;;;4.46;100.00;98805.69;5005832;28;20093;-82
2022/01/28 12:05:29;;;;;;;36.75;5.18;;;;;;;4.64;100.00;98829.56;4994706;28;20058;-82
2022/01/28 12:07:56;;;;;;;27.52;4.05;;;;;;;4.70;100.00;98823.19;5004621;28;20437;-79
2022/01/28 12:10:23;;;;;;;35.97;3.55;;;;;;;4.79;100.00;98823.56;5004712;28;20050;-80
2022/01/28 12:13:00;;;;;;;32.60;3.20;;;;;;;4.79;100.00;98834.31;4996969;28;20494;-81
2022/01/28 12:15:28;;;;;;;;;;;;;;;4.73;100.00;98824.56;5013492;28;20180;-79
2022/01/28 12:18:11;;;;;;;39.40;3.67;;;;;;;4.97;100.00;98821.41;5010419;28;19941;-80
2022/01/28 12:20:46;;;;;;;33.17;3.97;;;;;;;5.23;100.00;98835.13;5012843;28;20517;-83
2022/01/28 12:23:12;;;;;;;28.65;3.72;;;;;;;5.29;100.00;98834.13;5012217;28;20100;-80
2022/01/28 12:25:39;;;;;;;35.55;3.83;;;;;;;5.42;100.00;98831.84;5014715;28;20060;-82
2022/01/28 12:28:12;;;;;;;37.17;4.15;;;;;;;6.62;100.00;98823.22;4996968;28;20337;-81
2022/01/28 12:30:39;;;;;;;26.58;3.13;;;;;;;6.12;100.00;98829.06;4997519;28;20049;-82
2022/01/28 12:33:06;;;;;;;28.25;3.58;;;;;;;5.64;100.00;98819.19;5015893;28;20465;-82
2022/01/28 12:35:32;;;;;;;23.35;3.38;;;;;;;5.36;100.00;98813.25;5016091;28;20084;-80
2022/01/28 12:38:01;;;;;;;30.50;3.20;;;;;;;5.26;100.00;98805.09;5014988;28;20069;-82
2022/01/28 12:40:35;;;;;;;34.83;3.50;;;;;;;5.22;100.00;98799.41;5014819;28;20050;-80
2022/01/28 12:43:04;;;;;;;40.03;5.05;;;;;;;5.25;100.00;98798.91;5014072;28;20053;-80
2022/01/28 12:45:31;;;;;;;28.85;3.25;;;;;;;5.24;100.00;98805.31;5015075;28;20054;-81
2022/01/28 12:47:58;;;;;;;24.67;2.90;;;;;;;5.23;100.00;98803.72;4997926;28;20061;-81
2022/01/28 12:50:28;;;;;;;24.30;3.45;;;;;;;5.12;100.00;98822.63;5024143;28;20050;-80